createdAt,value
2019-01-02T00:00:59.019Z,75.30
2019-01-02T00:03:51.261Z,75.80
2019-01-02T00:06:44.732Z,75.70
2019-01-02T00:09:38.147Z,75.50
2019-01-02T00:12:31.399Z,75.80
2019-01-02T00:15:24.766Z,75.60
2019-01-02T00:18:19.522Z,75.50
2019-01-02T00:21:12.757Z,75.60
2019-01-02T00:24:05.908Z,75.60
2019-01-02T00:27:00.960Z,75.60
2019-01-02T00:29:54.316Z,75.40
2019-01-02T00:32:49.610Z,75.70
2019-01-02T00:35:41.835Z,75.40
2019-01-02T00:38:34.997Z,75.60
2019-01-02T00:41:28.693Z,75.60
2019-01-02T00:44:21.606Z,75.80
2019-01-02T00:47:14.452Z,75.40
2019-01-02T00:50:10.913Z,75.10
2019-01-02T00:53:07.663Z,75.20
2019-01-02T00:56:02.276Z,75.30
2019-01-02T00:58:55.380Z,75.40
2019-01-02T01:01:48.851Z,75.40
2019-01-02T01:04:42.649Z,75.40
2019-01-02T01:07:35.840Z,75.30
2019-01-02T01:10:29.212Z,75.30
2019-01-02T01:13:22.479Z,75.20
2019-01-02T01:16:16.210Z,75.40
2019-01-02T01:19:14.415Z,75.20
2019-01-02T01:22:10.435Z,75.10
2019-01-02T01:25:03.304Z,75.00
2019-01-02T01:27:56.173Z,74.90
2019-01-02T01:30:49.197Z,75.00
2019-01-02T01:33:45.273Z,75.00
2019-01-02T01:36:41.887Z,74.70
2019-01-02T01:39:40.397Z,74.80
2019-01-02T01:42:34.339Z,74.50
2019-01-02T01:45:27.829Z,74.70
2019-01-02T01:48:25.069Z,74.60
2019-01-02T01:51:18.051Z,74.90
2019-01-02T01:54:16.529Z,74.60
2019-01-02T01:57:08.862Z,74.90
2019-01-02T02:00:04.316Z,74.80
2019-01-02T02:02:57.554Z,74.60
2019-01-02T02:05:50.925Z,74.50
2019-01-02T02:08:44.079Z,74.70
2019-01-02T02:11:37.217Z,74.80
2019-01-02T02:14:29.886Z,74.70
2019-01-02T02:17:23.916Z,74.90
2019-01-02T02:20:17.422Z,74.70
2019-01-02T02:23:10.779Z,74.50
2019-01-02T02:26:05.699Z,74.60
2019-01-02T02:28:59.458Z,74.40
2019-01-02T02:31:52.708Z,74.50
2019-01-02T02:34:45.519Z,75.10
2019-01-02T02:37:38.693Z,74.50
2019-01-02T02:40:31.726Z,74.70
2019-01-02T02:43:27.499Z,74.50
2019-01-02T02:46:20.649Z,74.60
2019-01-02T02:49:14.745Z,74.70
2019-01-02T02:52:08.098Z,74.70
2019-01-02T02:55:01.623Z,74.50
2019-01-02T02:57:55.091Z,74.40
2019-01-02T03:00:50.989Z,74.70
2019-01-02T03:03:44.902Z,74.50
2019-01-02T03:06:39.981Z,74.60
2019-01-02T03:09:32.962Z,74.60
2019-01-02T03:12:25.832Z,74.80
2019-01-02T03:15:21.653Z,74.90
2019-01-02T03:18:15.211Z,74.70
2019-01-02T03:21:08.437Z,74.90
2019-01-02T03:24:01.667Z,75.50
2019-01-02T03:26:54.792Z,75.50
2019-01-02T03:29:47.847Z,75.80
2019-01-02T03:32:40.969Z,75.40
2019-01-02T03:35:41.781Z,76.10
2019-01-02T03:38:34.590Z,76.20
2019-01-02T03:41:27.429Z,76.10
2019-01-02T03:44:20.441Z,75.80
2019-01-02T03:47:13.451Z,74.80
2019-01-02T03:50:07.867Z,75.60
2019-01-02T03:53:03.840Z,75.00
2019-01-02T03:55:56.897Z,74.10
2019-01-02T03:58:49.892Z,75.30
2019-01-02T04:01:44.577Z,75.40
2019-01-02T04:04:37.516Z,75.50
2019-01-02T04:07:33.736Z,75.70
2019-01-02T04:10:26.643Z,75.80
2019-01-02T04:13:19.753Z,75.60
2019-01-02T04:16:12.860Z,74.80
2019-01-02T04:19:05.684Z,75.40
2019-01-02T04:21:58.710Z,74.10
2019-01-02T04:24:51.794Z,74.00
2019-01-02T04:27:45.264Z,73.70
2019-01-02T04:30:38.590Z,74.60
2019-01-02T04:33:31.836Z,75.10
2019-01-02T04:36:25.258Z,75.10
2019-01-02T04:39:18.161Z,75.40
2019-01-02T04:42:11.244Z,75.10
2019-01-02T04:45:04.087Z,75.30
2019-01-02T04:48:03.983Z,74.50
2019-01-02T04:50:54.417Z,75.00
2019-01-02T04:53:48.561Z,75.20
2019-01-02T04:56:41.631Z,75.80
2019-01-02T04:59:35.127Z,75.40
2019-01-02T05:02:28.176Z,75.50
2019-01-02T05:05:21.345Z,75.30
2019-01-02T05:08:14.612Z,75.50
2019-01-02T05:11:09.296Z,75.50
2019-01-02T05:14:02.616Z,75.20
2019-01-02T05:16:55.425Z,75.20
2019-01-02T05:19:48.781Z,75.20
2019-01-02T05:22:42.509Z,74.70
2019-01-02T05:25:36.070Z,74.40
2019-01-02T05:28:29.095Z,72.90
2019-01-02T05:31:22.245Z,73.20
2019-01-02T05:34:15.883Z,73.10
2019-01-02T05:37:08.775Z,72.30
2019-01-02T05:40:02.307Z,72.80
2019-01-02T05:42:55.707Z,73.50
2019-01-02T05:45:53.909Z,73.30
2019-01-02T05:48:47.655Z,72.70
2019-01-02T05:51:42.159Z,73.00
2019-01-02T05:54:35.520Z,73.40
2019-01-02T05:57:28.265Z,73.70
2019-01-02T06:00:21.480Z,73.70
2019-01-02T06:03:14.579Z,73.40
2019-01-02T06:09:51.252Z,73.70
2019-01-02T06:12:44.806Z,74.10
2019-01-02T06:15:40.590Z,74.10
2019-01-02T06:18:34.020Z,74.20
2019-01-02T06:21:31.143Z,74.40
2019-01-02T06:24:24.159Z,74.40
2019-01-02T06:27:17.486Z,74.40
2019-01-02T06:30:12.595Z,74.50
2019-01-02T06:33:10.965Z,74.40
2019-01-02T06:36:02.318Z,74.10
2019-01-02T06:38:56.564Z,74.00
2019-01-02T06:41:50.316Z,74.10
2019-01-02T06:44:46.798Z,74.30
2019-01-02T06:47:40.534Z,74.40
2019-01-02T06:50:34.549Z,74.50
2019-01-02T06:53:27.773Z,74.50
2019-01-02T06:56:21.626Z,74.60
2019-01-02T06:59:16.405Z,74.60
2019-01-02T07:02:10.245Z,74.60
2019-01-02T07:05:03.981Z,74.60
2019-01-02T07:07:57.360Z,74.70
2019-01-02T07:10:51.321Z,74.70
2019-01-02T07:13:54.428Z,74.70
2019-01-02T07:16:47.374Z,74.50
2019-01-02T07:19:43.584Z,74.40
2019-01-02T07:22:38.547Z,74.50
2019-01-02T07:25:32.059Z,74.60
2019-01-02T07:28:25.857Z,74.70
2019-01-02T07:31:19.367Z,74.50
2019-01-02T07:34:22.823Z,74.20
2019-01-02T07:37:44.027Z,73.90
2019-01-02T07:40:54.540Z,73.70
2019-01-02T07:44:04.738Z,73.10
2019-01-02T07:47:13.375Z,73.10
2019-01-02T07:50:29.876Z,72.90
2019-01-02T07:53:31.851Z,72.80
2019-01-02T07:56:50.767Z,72.60
2019-01-02T08:00:09.403Z,72.40
2019-01-02T08:03:21.694Z,72.20
2019-01-02T08:06:31.444Z,72.00
2019-01-02T08:09:41.646Z,72.00
2019-01-02T08:13:01.098Z,71.90
2019-01-02T08:16:15.404Z,71.90
2019-01-02T08:19:29.652Z,71.90
2019-01-02T08:22:58.127Z,72.00
2019-01-02T08:26:02.495Z,71.70
2019-01-02T08:29:04.353Z,71.60
2019-01-02T08:32:12.566Z,71.30
2019-01-02T08:35:24.772Z,71.10
2019-01-02T08:38:32.181Z,71.30
2019-01-02T08:41:44.694Z,71.30
2019-01-02T08:44:47.630Z,71.50
2019-01-02T08:47:57.976Z,71.20
2019-01-02T08:51:25.143Z,71.40
2019-01-02T08:54:36.699Z,71.60
2019-01-02T08:58:03.359Z,71.70
2019-01-02T09:01:01.493Z,71.80
2019-01-02T09:04:16.675Z,71.90
2019-01-02T09:07:31.498Z,72.10
2019-01-02T09:10:42.877Z,72.00
2019-01-02T09:13:51.439Z,72.10
2019-01-02T09:17:01.504Z,72.00
2019-01-02T09:20:13.897Z,72.10
2019-01-02T09:23:22.655Z,72.00
2019-01-02T09:26:20.364Z,72.30
2019-01-02T09:29:45.294Z,72.30
2019-01-02T09:32:56.448Z,72.40
2019-01-02T09:36:03.249Z,72.40
2019-01-02T09:39:19.330Z,72.40
2019-01-02T09:42:33.788Z,72.50
2019-01-02T09:45:47.813Z,72.50
2019-01-02T09:49:05.221Z,72.50
2019-01-02T09:52:17.121Z,72.50
2019-01-02T09:55:26.912Z,72.60
2019-01-02T09:58:39.350Z,72.70
2019-01-02T10:01:50.802Z,72.70
2019-01-02T10:05:14.697Z,72.80
2019-01-02T10:08:15.196Z,72.80
2019-01-02T10:11:43.041Z,72.90
2019-01-02T10:14:47.028Z,73.10
2019-01-02T10:17:57.663Z,73.20
2019-01-02T10:21:16.241Z,73.10
2019-01-02T10:24:45.039Z,73.10
2019-01-02T10:27:57.974Z,73.30
2019-01-02T10:31:01.342Z,73.20
2019-01-02T10:34:22.266Z,73.30
2019-01-02T10:37:36.184Z,73.20
2019-01-02T10:40:47.305Z,73.20
2019-01-02T10:44:03.778Z,73.20
2019-01-02T10:47:02.343Z,73.20
2019-01-02T10:50:18.055Z,73.20
2019-01-02T10:53:20.672Z,73.20
2019-01-02T10:56:48.266Z,73.20
2019-01-02T11:00:19.085Z,73.30
2019-01-02T11:03:22.611Z,73.30
2019-01-02T11:06:46.444Z,73.30
2019-01-02T11:10:00.341Z,73.50
2019-01-02T11:13:14.766Z,73.40
2019-01-02T11:16:29.300Z,73.60
2019-01-02T11:19:45.600Z,73.50
2019-01-02T11:23:00.220Z,73.60
2019-01-02T11:26:18.007Z,73.60
2019-01-02T11:29:47.350Z,73.70
2019-01-02T11:32:57.391Z,73.70
2019-01-02T11:36:09.148Z,73.80
2019-01-02T11:39:29.914Z,73.90
2019-01-02T11:42:40.505Z,74.00
2019-01-02T11:45:33.962Z,74.10
2019-01-02T11:48:27.378Z,74.20
2019-01-02T11:51:20.018Z,74.30
2019-01-02T11:54:12.915Z,74.40
2019-01-02T11:57:08.946Z,74.50
2019-01-02T12:00:02.878Z,74.60
2019-01-02T12:02:56.056Z,74.70
2019-01-02T12:05:49.546Z,74.80
2019-01-02T12:08:44.339Z,74.90
2019-01-02T12:11:37.586Z,75.00
2019-01-02T12:14:30.614Z,75.00
2019-01-02T12:17:23.474Z,75.20
2019-01-02T12:20:17.179Z,75.30
2019-01-02T12:23:10.585Z,75.30
2019-01-02T12:26:04.046Z,75.30
2019-01-02T12:28:57.720Z,75.40
2019-01-02T12:31:51.520Z,75.50
2019-01-02T12:34:45.234Z,75.50
2019-01-02T12:37:37.981Z,75.40
2019-01-02T12:40:30.969Z,75.50
2019-01-02T12:43:23.966Z,75.40
2019-01-02T12:46:16.972Z,75.50
2019-01-02T12:49:11.340Z,75.60
2019-01-02T12:52:04.630Z,75.50
2019-01-02T12:54:58.369Z,75.60
2019-01-02T12:57:52.022Z,75.50
2019-01-02T13:00:50.531Z,75.60
2019-01-02T13:03:58.686Z,75.60
2019-01-02T13:07:20.434Z,75.60
2019-01-02T13:10:36.242Z,76.10
2019-01-02T13:13:51.261Z,75.60
2019-01-02T13:16:54.407Z,75.60
2019-01-02T13:20:08.973Z,75.60
2019-01-02T13:23:14.728Z,75.70
2019-01-02T13:26:28.414Z,75.70
2019-01-02T13:29:41.203Z,75.70
2019-01-02T13:32:55.555Z,75.80
2019-01-02T13:36:16.068Z,75.70
2019-01-02T13:39:15.849Z,75.80
2019-01-02T13:42:22.194Z,75.90
2019-01-02T13:45:34.545Z,75.90
2019-01-02T13:48:58.007Z,75.90
2019-01-02T13:51:53.470Z,76.00
2019-01-02T13:54:46.861Z,76.00
2019-01-02T13:57:40.223Z,76.20
2019-01-02T14:00:34.782Z,76.20
2019-01-02T14:03:28.254Z,76.10
2019-01-02T14:06:21.312Z,76.20
2019-01-02T14:09:14.617Z,76.20
2019-01-02T14:12:08.473Z,76.30
2019-01-02T14:15:09.323Z,76.30
2019-01-02T14:17:56.653Z,76.40
2019-01-02T14:20:52.522Z,76.40
2019-01-02T14:23:45.434Z,76.40
2019-01-02T14:26:39.830Z,76.40
2019-01-02T14:29:33.580Z,76.40
2019-01-02T14:32:27.331Z,76.50
2019-01-02T14:35:22.506Z,76.50
2019-01-02T14:38:15.034Z,76.50
2019-01-02T14:41:11.664Z,76.60
2019-01-02T14:44:05.835Z,76.60
2019-01-02T14:46:59.342Z,76.60
2019-01-02T14:49:53.791Z,76.60
2019-01-02T14:52:47.525Z,76.70
2019-01-02T14:55:41.021Z,76.70
2019-01-02T14:58:35.100Z,77.50
2019-01-02T15:01:29.343Z,76.80
2019-01-02T15:04:23.744Z,76.20
2019-01-02T15:07:19.158Z,76.90
2019-01-02T15:10:19.030Z,76.80
2019-01-02T15:13:13.207Z,76.90
2019-01-02T15:16:07.919Z,76.90
2019-01-02T15:19:05.274Z,76.90
2019-01-02T15:22:04.724Z,77.00
2019-01-02T15:24:55.834Z,76.90
2019-01-02T15:27:50.639Z,77.10
2019-01-02T15:30:49.786Z,77.10
2019-01-02T15:33:47.571Z,77.20
2019-01-02T15:36:42.703Z,77.20
2019-01-02T15:39:37.077Z,77.30
2019-01-02T15:42:31.372Z,77.30
2019-01-02T15:45:25.672Z,77.30
2019-01-02T15:48:19.463Z,77.40
2019-01-02T15:51:13.908Z,77.40
2019-01-02T15:54:07.865Z,77.50
2019-01-02T15:57:03.668Z,77.50
2019-01-02T15:59:57.879Z,77.60
2019-01-02T16:02:54.769Z,77.60
2019-01-02T16:05:47.458Z,77.60
2019-01-02T16:08:40.701Z,77.70
2019-01-02T16:11:34.696Z,77.70
2019-01-02T16:14:29.103Z,77.70
2019-01-02T16:17:22.925Z,77.80
2019-01-02T16:20:23.670Z,77.70
2019-01-02T16:23:25.674Z,77.70
2019-01-02T16:26:20.257Z,77.70
2019-01-02T16:29:13.509Z,77.80
2019-01-02T16:32:06.657Z,77.80
2019-01-02T16:35:00.193Z,77.80
2019-01-02T16:37:54.510Z,77.90
2019-01-02T16:40:48.321Z,77.90
2019-01-02T16:43:42.767Z,77.80
2019-01-02T16:46:37.051Z,77.90
2019-01-02T16:49:49.703Z,77.90
2019-01-02T16:52:44.810Z,77.90
2019-01-02T16:55:38.262Z,77.30
2019-01-02T16:58:31.280Z,78.00
2019-01-02T17:01:26.006Z,77.90
2019-01-02T17:04:30.584Z,78.00
2019-01-02T17:07:22.905Z,78.00
2019-01-02T17:10:15.988Z,78.00
2019-01-02T17:13:09.391Z,78.10
2019-01-02T17:16:02.693Z,78.00
2019-01-02T17:18:55.824Z,78.00
2019-01-02T17:21:48.835Z,78.00
2019-01-02T17:24:41.884Z,78.00
2019-01-02T17:27:36.763Z,78.00
2019-01-02T17:30:29.994Z,78.00
2019-01-02T17:33:23.324Z,78.00
2019-01-02T17:36:16.688Z,78.00
2019-01-02T17:39:11.417Z,77.90
2019-01-02T17:42:04.754Z,77.90
2019-01-02T17:44:57.817Z,77.80
2019-01-02T17:47:50.841Z,77.70
2019-01-02T17:50:43.796Z,77.80
2019-01-02T17:53:38.461Z,77.50
2019-01-02T17:56:31.614Z,77.60
2019-01-02T17:59:24.841Z,77.60
2019-01-02T18:02:18.307Z,77.50
2019-01-02T18:05:11.261Z,77.50
2019-01-02T18:08:04.463Z,77.50
2019-01-02T18:10:57.599Z,77.40
2019-01-02T18:13:50.377Z,77.40
2019-01-02T18:16:43.441Z,77.40
2019-01-02T18:19:36.414Z,77.30
2019-01-02T18:22:29.681Z,77.40
2019-01-02T18:25:22.738Z,77.30
2019-01-02T18:28:15.528Z,77.40
2019-01-02T18:31:08.745Z,77.40
2019-01-02T18:34:01.659Z,77.50
2019-01-02T18:36:54.930Z,77.40
2019-01-02T18:39:48.026Z,77.50
2019-01-02T18:42:41.295Z,77.50
2019-01-02T18:45:34.306Z,77.40
2019-01-02T18:48:27.743Z,77.30
2019-01-02T18:51:20.366Z,77.20
2019-01-02T18:54:13.272Z,77.20
2019-01-02T18:57:06.519Z,77.40
2019-01-02T19:00:05.707Z,77.50
2019-01-02T19:02:53.628Z,77.60
2019-01-02T19:05:49.873Z,77.60
2019-01-02T19:08:43.328Z,77.50
2019-01-02T19:11:36.823Z,77.40
2019-01-02T19:14:33.678Z,77.50
2019-01-02T19:17:27.153Z,77.50
2019-01-02T19:20:20.445Z,77.50
2019-01-02T19:23:13.697Z,77.50
2019-01-02T19:26:06.901Z,77.60
2019-01-02T19:29:03.049Z,77.50
2019-01-02T19:31:54.944Z,77.60
2019-01-02T19:34:49.969Z,77.60
2019-01-02T19:37:43.174Z,77.50
2019-01-02T19:40:36.450Z,77.40
2019-01-02T19:43:29.591Z,77.30
2019-01-02T19:46:25.539Z,77.30
2019-01-02T19:49:20.198Z,77.40
2019-01-02T19:52:13.064Z,77.30
2019-01-02T19:55:06.791Z,77.20
2019-01-02T19:57:59.914Z,77.20
2019-01-02T20:00:53.411Z,77.30
2019-01-02T20:03:46.174Z,77.50
2019-01-02T20:06:40.639Z,77.50
2019-01-02T20:09:34.061Z,77.20
2019-01-02T20:12:27.446Z,77.30
2019-01-02T20:15:20.615Z,77.30
2019-01-02T20:18:23.011Z,77.80
2019-01-02T20:21:16.221Z,77.20
2019-01-02T20:24:09.060Z,77.10
2019-01-02T20:27:01.936Z,77.00
2019-01-02T20:29:57.259Z,76.90
2019-01-02T20:32:49.729Z,76.80
2019-01-02T20:35:43.746Z,76.80
2019-01-02T20:38:36.962Z,76.70
2019-01-02T20:41:29.914Z,76.60
2019-01-02T20:44:27.342Z,76.60
2019-01-02T20:47:21.855Z,76.60
2019-01-02T20:50:14.917Z,76.60
2019-01-02T20:53:09.691Z,76.70
2019-01-02T20:56:06.404Z,76.60
2019-01-02T20:59:03.479Z,76.50
2019-01-02T21:01:57.705Z,76.50
2019-01-02T21:04:51.147Z,76.50
2019-01-02T21:07:47.087Z,76.60
2019-01-02T21:10:40.051Z,76.50
2019-01-02T21:13:33.394Z,76.60
2019-01-02T21:16:26.537Z,76.60
2019-01-02T21:19:19.810Z,76.70
2019-01-02T21:22:13.060Z,76.80
2019-01-02T21:25:06.505Z,76.60
2019-01-02T21:27:59.531Z,76.70
2019-01-02T21:30:52.675Z,76.60
2019-01-02T21:33:50.878Z,76.50
2019-01-02T21:36:46.603Z,76.70
2019-01-02T21:39:39.917Z,77.10
2019-01-02T21:42:33.128Z,76.70
2019-01-02T21:45:26.985Z,76.50
2019-01-02T21:48:20.488Z,76.40
2019-01-02T21:51:14.231Z,76.40
2019-01-02T21:54:07.436Z,76.30
2019-01-02T21:57:00.905Z,76.20
2019-01-02T22:00:01.423Z,76.10
2019-01-02T22:02:49.099Z,76.10
2019-01-02T22:05:42.061Z,76.20
2019-01-02T22:08:35.534Z,76.30
2019-01-02T22:11:29.307Z,76.10
2019-01-02T22:14:23.231Z,76.30
2019-01-02T22:17:16.515Z,76.20
2019-01-02T22:20:09.709Z,76.20
2019-01-02T22:23:03.197Z,76.20
2019-01-02T22:25:56.289Z,76.00
2019-01-02T22:28:49.772Z,76.10
2019-01-02T22:31:43.027Z,76.30
2019-01-02T22:34:36.221Z,76.20
2019-01-02T22:37:29.702Z,76.30
2019-01-02T22:40:24.521Z,76.20
2019-01-02T22:43:17.424Z,76.30
2019-01-02T22:46:10.590Z,76.20
2019-01-02T22:49:03.979Z,76.20
2019-01-02T22:51:57.034Z,76.10
2019-01-02T22:54:50.625Z,76.00
2019-01-02T22:57:43.808Z,76.20
2019-01-02T23:00:55.388Z,76.20
2019-01-02T23:03:56.308Z,76.10
2019-01-02T23:07:06.685Z,76.10
2019-01-02T23:10:21.444Z,76.20
2019-01-02T23:13:35.638Z,76.30
2019-01-02T23:16:45.945Z,76.20
2019-01-02T23:20:06.821Z,76.10
2019-01-02T23:23:22.066Z,76.10
2019-01-02T23:26:33.043Z,76.00
2019-01-02T23:29:49.089Z,76.00
2019-01-02T23:33:17.224Z,76.00
2019-01-02T23:36:31.122Z,76.20
2019-01-02T23:39:41.534Z,76.10
2019-01-02T23:43:02.735Z,76.20
2019-01-02T23:46:19.637Z,76.20
2019-01-02T23:49:40.116Z,76.00
2019-01-02T23:52:56.920Z,76.00
2019-01-02T23:56:23.051Z,76.00
2019-01-02T23:59:37.564Z,76.00
